Time;durP1;ratioP1;P1;durP2;ratioP2;P2;SDS_P1;SDS_P2;PMS_P1;PMS_P2;Temp;Humidity;BMP_temperature;BMP_pressure;BME280_temperature;BME280_humidity;BME280_pressure;Samples;Min_cycle;Max_cycle;Signal;HPM_P1;HPM_P2
2021/10/07 00:02:14;;;;;;;;;9.25;4.00;;;;;21.36;46.05;102229.88;5017729;28;50988;-38
2021/10/07 00:04:39;;;;;;;;;4.25;1.25;;;;;21.35;46.18;102224.56;5017989;28;51824;-38
2021/10/07 00:07:05;;;;;;;;;3.00;2.00;;;;;21.33;46.27;102231.13;5010431;28;50979;-38
2021/10/07 00:09:32;;;;;;;;;4.00;4.00;;;;;21.35;46.37;102230.94;5015969;28;51061;-38
2021/10/07 00:11:57;;;;;;;;;4.25;3.00;;;;;21.33;45.79;102233.91;5015907;28;51191;-38
2021/10/07 00:14:22;;;;;;;;;2.00;2.00;;;;;21.34;45.74;102237.50;5003760;28;51091;-38
2021/10/07 00:16:48;;;;;;;;;5.75;3.00;;;;;21.31;46.17;102230.47;5009628;28;51175;-38
2021/10/07 00:19:13;;;;;;;;;2.00;2.00;;;;;21.32;46.14;102245.13;5010965;28;51471;-43
2021/10/07 00:21:39;;;;;;;;;2.00;2.00;;;;;21.33;46.27;102238.56;5002115;28;51235;-38
2021/10/07 00:24:08;;;;;;;;;2.00;2.00;;;;;21.32;46.21;102245.97;4998876;28;50990;-38
2021/10/07 00:26:37;;;;;;;;;3.50;2.75;;;;;21.32;46.30;102242.38;5004308;28;51077;-38
2021/10/07 00:29:18;;;;;;;;;2.25;2.25;;;;;21.31;45.74;102244.28;5007104;28;51234;-37
2021/10/07 00:31:47;;;;;;;;;2.75;2.25;;;;;21.31;46.24;102237.91;4985208;28;51383;-40
2021/10/07 00:37:19;;;;;;;;;2.25;2.25;;;;;21.30;45.89;102247.22;5006516;28;51382;-41
2021/10/07 00:39:41;;;;;;;;;1.00;1.00;;;;;21.29;46.01;102249.13;5003187;28;51120;-38
2021/10/07 00:42:06;;;;;;;;;3.00;3.00;;;;;21.29;46.17;102251.88;5001847;28;51564;-38
2021/10/07 00:44:32;;;;;;;;;1.00;1.00;;;;;21.30;46.26;102249.97;5001621;28;51780;-41
2021/10/07 00:47:01;;;;;;;;;2.50;2.00;;;;;21.29;46.40;102249.13;5019165;28;51071;-38
2021/10/07 00:49:29;;;;;;;;;3.75;1.25;;;;;21.28;46.02;102252.94;5009935;28;51274;-37
2021/10/07 00:51:55;;;;;;;;;5.00;3.75;;;;;21.28;46.27;102252.94;5018823;28;51113;-37
2021/10/07 00:54:28;;;;;;;;;3.75;2.75;;;;;21.28;46.06;102246.56;5006287;28;51982;-37
2021/10/07 00:56:55;;;;;;;;;1.75;1.75;;;;;21.28;46.48;102258.44;5019091;28;51322;-38
2021/10/07 00:59:20;;;;;;;;;1.00;1.00;;;;;21.27;46.07;102256.75;5005150;28;52293;-37
2021/10/07 01:01:46;;;;;;;;;1.50;1.00;;;;;21.28;46.07;102261.19;5017047;28;51245;-37
2021/10/07 01:04:11;;;;;;;;;1.00;1.00;;;;;21.26;46.33;102249.53;5007289;28;51704;-38
2021/10/07 01:06:42;;;;;;;;;1.50;1.50;;;;;21.27;46.00;102255.88;5013664;28;50968;-39
2021/10/07 01:09:07;;;;;;;;;1.25;1.25;;;;;21.26;46.00;102252.28;5002371;28;51180;-38
2021/10/07 01:11:33;;;;;;;;;3.00;2.00;;;;;21.27;46.00;102248.47;5012828;28;51054;-38
2021/10/07 01:13:59;;;;;;;;;2.75;2.25;;;;;21.26;45.89;102246.78;5005431;28;52119;-39
2021/10/07 01:16:25;;;;;;;;;2.75;1.00;;;;;21.27;45.87;102247.63;4999235;28;51164;-38
2021/10/07 01:18:50;;;;;;;;;1.25;1.00;;;;;21.26;45.85;102243.16;4999433;28;51028;-41
2021/10/07 01:21:17;;;;;;;;;1.00;1.00;;;;;21.26;46.30;102249.53;5003578;28;51179;-39
2021/10/07 01:23:44;;;;;;;;;4.00;1.00;;;;;21.26;46.51;102251.44;5012921;28;51947;-39
2021/10/07 01:26:11;;;;;;;;;4.00;2.50;;;;;21.25;45.95;102247.75;5013882;28;51198;-38
2021/10/07 01:28:40;;;;;;;;;1.00;1.00;;;;;21.24;45.93;102243.28;5017936;28;51119;-38
2021/10/07 01:31:06;;;;;;;;;2.00;2.00;;;;;21.24;46.55;102251.56;5017279;28;51174;-39
2021/10/07 01:33:32;;;;;;;;;0.75;0.75;;;;;21.23;45.99;102247.09;5014173;28;51842;-38
2021/10/07 01:35:58;;;;;;;;;1.00;1.00;;;;;21.23;45.88;102249.84;5012156;28;51223;-39
2021/10/07 01:38:24;;;;;;;;;1.75;1.75;;;;;21.24;46.41;102248.81;5019301;28;51146;-38
2021/10/07 01:40:49;;;;;;;;;2.50;1.75;;;;;21.24;46.41;102246.06;5016052;28;51003;-39
2021/10/07 01:43:15;;;;;;;;;2.50;0.75;;;;;21.23;46.37;102249.84;5014655;28;50986;-39
2021/10/07 01:45:40;;;;;;;;;2.75;1.00;;;;;21.23;46.55;102251.75;5007707;28;51229;-39
2021/10/07 01:48:06;;;;;;;;;1.75;1.25;;;;;21.22;46.36;102239.88;4993673;28;51188;-39
2021/10/07 01:50:32;;;;;;;;;0.00;0.00;;;;;21.22;46.50;102245.41;5017045;28;51137;-38
2021/10/07 01:52:58;;;;;;;;;0.50;0.50;;;;;21.21;46.16;102248.34;5010125;28;51073;-39
2021/10/07 01:55:24;;;;;;;;;3.00;1.25;;;;;21.21;46.63;102249.19;4999158;28;51135;-39
2021/10/07 01:57:49;;;;;;;;;2.75;1.00;;;;;21.21;46.45;102242.84;5012836;28;51074;-38
2021/10/07 02:00:14;;;;;;;;;1.00;1.00;;;;;21.21;46.20;102248.34;5002318;28;51206;-39
2021/10/07 02:02:41;;;;;;;;;3.00;2.00;;;;;21.21;46.50;102249.19;5011475;28;51068;-39
2021/10/07 02:05:08;;;;;;;;;0.50;0.50;;;;;21.21;46.35;102251.97;5001276;28;51193;-38
2021/10/07 02:07:33;;;;;;;;;0.50;0.50;;;;;21.21;46.11;102246.44;5003037;28;51115;-39
2021/10/07 02:09:59;;;;;;;;;1.00;1.00;;;;;21.19;46.01;102237.53;5014734;28;51264;-38
2021/10/07 02:12:25;;;;;;;;;0.75;0.75;;;;;21.20;46.13;102241.13;5016257;28;51023;-39
2021/10/07 02:14:50;;;;;;;;;0.00;0.00;;;;;21.19;46.04;102243.03;5003831;28;51113;-38
2021/10/07 02:17:16;;;;;;;;;2.50;1.00;;;;;21.19;46.52;102234.78;5013197;28;51094;-39
2021/10/07 02:19:41;;;;;;;;;2.00;0.75;;;;;21.19;46.23;102242.19;5004825;28;51133;-38
2021/10/07 02:22:06;;;;;;;;;0.25;0.25;;;;;21.19;46.39;102236.66;4999025;28;51951;-38
2021/10/07 02:24:33;;;;;;;;;0.00;0.00;;;;;21.19;46.05;102233.91;5010348;28;51073;-39
2021/10/07 02:26:58;;;;;;;;;1.00;1.00;;;;;21.17;46.43;102231.34;5013829;28;51122;-39
2021/10/07 02:29:23;;;;;;;;;1.00;1.00;;;;;21.17;46.49;102223.09;5016637;28;51091;-40
2021/10/07 02:31:49;;;;;;;;;3.00;0.25;;;;;21.17;46.62;102222.25;5016742;28;51016;-39
2021/10/07 02:34:14;;;;;;;;;1.00;1.00;;;;;21.18;46.48;102226.69;5011215;28;51052;-39
2021/10/07 02:36:40;;;;;;;;;0.50;0.00;;;;;21.16;46.69;102226.91;5013806;28;50910;-39
2021/10/07 02:39:05;;;;;;;;;1.00;1.00;;;;;21.16;46.54;102235.16;5010614;28;51276;-38
2021/10/07 02:41:31;;;;;;;;;0.50;0.50;;;;;21.17;46.33;102234.13;5016785;28;51871;-38
2021/10/07 02:43:57;;;;;;;;;1.00;1.00;;;;;21.15;46.49;102230.66;5011190;28;51200;-38
2021/10/07 02:46:22;;;;;;;;;0.25;0.25;;;;;21.15;46.60;102219.66;5003341;28;51093;-38
2021/10/07 02:48:48;;;;;;;;;1.00;0.00;;;;;21.16;46.59;102232.41;5012162;28;50882;-39
2021/10/07 02:51:14;;;;;;;;;1.00;1.00;;;;;21.14;46.17;102228.97;5015770;28;51631;-38
2021/10/07 02:53:39;;;;;;;;;0.75;0.50;;;;;21.14;46.57;102228.97;5011092;28;51022;-38
2021/10/07 02:56:06;;;;;;;;;3.50;1.00;;;;;21.13;46.67;102230.00;5004512;28;50952;-41
2021/10/07 02:58:33;;;;;;;;;0.50;0.50;;;;;21.13;46.46;102235.53;5002106;28;51257;-41
2021/10/07 03:00:58;;;;;;;;;1.00;1.00;;;;;21.12;46.57;102233.81;5009937;28;51860;-39
2021/10/07 03:03:24;;;;;;;;;2.00;1.00;;;;;21.12;46.42;102231.06;5012544;28;51091;-42
2021/10/07 03:05:49;;;;;;;;;0.25;0.00;;;;;21.13;46.57;102226.41;5005725;28;50997;-42
2021/10/07 03:08:15;;;;;;;;;2.00;1.50;;;;;21.12;46.55;102225.56;5013404;28;51017;-41
2021/10/07 03:10:40;;;;;;;;;1.50;1.50;;;;;21.12;46.25;102228.31;5014555;28;51758;-42
2021/10/07 03:13:05;;;;;;;;;1.00;1.00;;;;;21.13;46.30;102238.28;5015853;28;50949;-41
2021/10/07 03:15:31;;;;;;;;;0.00;0.00;;;;;21.12;46.62;102233.81;4998303;28;51099;-42
2021/10/07 03:17:56;;;;;;;;;0.75;0.75;;;;;21.12;46.61;102242.09;5013618;28;51275;-41
2021/10/07 03:20:21;;;;;;;;;1.00;1.00;;;;;21.11;46.49;102243.13;5006823;28;51097;-42
2021/10/07 03:22:47;;;;;;;;;3.50;0.25;;;;;21.12;46.66;102238.47;5005796;28;50907;-44
2021/10/07 03:25:13;;;;;;;;;2.75;2.75;;;;;21.11;46.50;102245.03;4995741;28;51190;-43
2021/10/07 03:27:38;;;;;;;;;1.50;0.00;;;;;21.11;46.56;102242.28;5001049;28;50985;-40
2021/10/07 03:30:06;;;;;;;;;0.75;0.75;;;;;21.10;46.20;102240.59;5006373;28;51549;-40
2021/10/07 03:32:32;;;;;;;;;0.50;0.00;;;;;21.10;46.30;102249.69;5006923;28;51108;-39
2021/10/07 03:34:57;;;;;;;;;2.75;1.00;;;;;21.10;46.07;102246.94;5006312;28;51037;-39
2021/10/07 03:37:22;;;;;;;;;0.75;0.75;;;;;21.08;46.55;102246.28;5014706;28;51441;-40
2021/10/07 03:39:48;;;;;;;;;0.75;0.75;;;;;21.09;46.55;102244.38;5014635;28;50999;-41
2021/10/07 03:42:14;;;;;;;;;0.50;0.50;;;;;21.09;46.52;102248.00;5002222;28;51062;-41
2021/10/07 03:44:41;;;;;;;;;1.00;1.00;;;;;21.09;46.17;102244.38;5011844;28;50938;-40
2021/10/07 03:47:06;;;;;;;;;2.00;1.00;;;;;21.09;46.14;102250.75;5016182;28;51004;-40
2021/10/07 03:49:32;;;;;;;;;0.00;0.00;;;;;21.09;46.53;102249.91;5014820;28;52007;-40
2021/10/07 03:51:57;;;;;;;;;0.00;0.00;;;;;21.08;46.64;102250.94;5009682;28;50975;-40
2021/10/07 03:54:23;;;;;;;;;0.75;0.75;;;;;21.08;46.20;102257.31;5008524;28;51048;-39
2021/10/07 03:56:48;;;;;;;;;0.00;0.00;;;;;21.08;46.63;102254.56;4986801;28;51304;-37
2021/10/07 03:59:13;;;;;;;;;1.25;1.00;;;;;21.07;46.31;102258.38;5011452;28;51683;-37
2021/10/07 04:01:39;;;;;;;;;1.25;1.25;;;;;21.08;46.61;102261.97;4975010;28;51188;-37
2021/10/07 04:04:04;;;;;;;;;0.00;0.00;;;;;21.07;46.72;102258.38;4998773;28;51087;-40
2021/10/07 04:06:29;;;;;;;;;2.00;0.50;;;;;21.08;46.23;102264.72;4998161;28;51367;-41
2021/10/07 04:08:55;;;;;;;;;0.00;0.00;;;;;21.07;46.63;102258.38;5004306;28;51584;-41
2021/10/07 04:11:20;;;;;;;;;1.25;1.00;;;;;21.07;46.10;102277.66;5013054;28;51068;-41
2021/10/07 04:13:47;;;;;;;;;1.00;1.00;;;;;21.06;46.47;102270.44;4999416;28;51057;-43
2021/10/07 04:16:13;;;;;;;;;0.00;0.00;;;;;21.07;46.32;102276.78;4996910;28;50947;-40
2021/10/07 04:18:40;;;;;;;;;3.50;1.00;;;;;21.06;46.35;102273.19;4996977;28;51153;-40
2021/10/07 04:21:06;;;;;;;;;1.00;1.00;;;;;21.05;46.65;102263.22;5001351;28;51415;-40
2021/10/07 04:23:32;;;;;;;;;1.00;1.00;;;;;21.04;46.33;102272.50;4980751;28;51089;-40
2021/10/07 04:25:57;;;;;;;;;0.50;0.50;;;;;21.05;46.71;102274.25;5007301;28;50847;-40
2021/10/07 04:28:22;;;;;;;;;0.25;0.25;;;;;21.05;46.72;102274.25;4996499;28;51812;-38
2021/10/07 04:30:48;;;;;;;;;2.00;1.00;;;;;21.04;46.87;102275.25;4979691;28;50993;-38
2021/10/07 04:33:13;;;;;;;;;0.00;0.00;;;;;21.04;46.20;102275.25;4983368;28;50966;-38
2021/10/07 04:35:39;;;;;;;;;0.75;0.75;;;;;21.04;46.33;102278.00;4999768;28;51072;-38
2021/10/07 04:38:05;;;;;;;;;1.00;1.00;;;;;21.03;46.60;102276.31;4997226;28;50978;-38
2021/10/07 04:40:31;;;;;;;;;1.25;0.75;;;;;21.04;46.52;102269.75;4975663;28;51055;-37
2021/10/07 04:42:58;;;;;;;;;1.75;0.75;;;;;21.03;46.36;102271.66;5018797;28;51184;-37
2021/10/07 04:45:23;;;;;;;;;0.50;0.50;;;;;21.03;46.02;102276.31;5015739;28;51249;-38
2021/10/07 04:47:48;;;;;;;;;2.00;0.00;;;;;21.02;46.25;102275.44;5017298;28;52163;-41
2021/10/07 04:50:14;;;;;;;;;0.00;0.00;;;;;21.03;46.21;102273.56;5006591;28;51383;-38
2021/10/07 04:52:39;;;;;;;;;2.00;0.75;;;;;21.03;46.67;102271.66;4999989;28;51360;-38
2021/10/07 04:55:07;;;;;;;;;2.00;2.00;;;;;21.05;46.38;102279.75;5005738;28;51128;-42
2021/10/07 04:57:33;;;;;;;;;2.00;0.75;;;;;21.04;46.47;102267.00;5006103;28;51689;-40
2021/10/07 04:59:58;;;;;;;;;1.00;1.00;;;;;21.04;46.22;102273.34;5006613;28;51112;-37
2021/10/07 05:02:24;;;;;;;;;2.25;1.25;;;;;21.05;46.25;102274.25;5009862;28;51520;-37
2021/10/07 05:04:49;;;;;;;;;2.75;1.50;;;;;21.03;46.44;102277.16;5003949;28;51035;-41
2021/10/07 05:07:14;;;;;;;;;2.50;1.75;;;;;21.06;46.32;102286.97;5009810;28;51803;-38
2021/10/07 05:09:40;;;;;;;;;2.75;2.75;;;;;21.05;46.57;102282.50;5003107;28;51117;-39
2021/10/07 05:12:07;;;;;;;;;4.75;2.50;;;;;21.07;46.77;102285.06;4987497;28;51201;-46
2021/10/07 05:14:32;;;;;;;;;2.00;0.75;;;;;21.06;47.00;102289.72;5002183;28;51233;-38
2021/10/07 05:16:58;;;;;;;;;1.75;1.75;;;;;21.08;46.52;102292.28;5013355;28;51652;-38
2021/10/07 05:19:23;;;;;;;;;2.25;0.50;;;;;21.08;46.88;102300.53;5006642;28;50965;-38
2021/10/07 05:21:49;;;;;;;;;1.00;1.00;;;;;21.09;46.72;102302.25;5002244;28;51109;-38
2021/10/07 05:24:15;;;;;;;;;3.75;2.50;;;;;21.08;46.63;102295.88;5013365;28;50961;-38
2021/10/07 05:26:40;;;;;;;;;4.50;2.00;;;;;21.09;46.81;102296.75;5011676;28;51242;-38
2021/10/07 05:29:05;;;;;;;;;4.50;3.00;;;;;21.09;46.87;102296.75;5005180;28;51184;-38
2021/10/07 05:31:31;;;;;;;;;2.25;1.75;;;;;21.09;46.52;102299.50;4998005;28;51061;-38
2021/10/07 05:33:56;;;;;;;;;3.00;1.00;;;;;21.10;46.32;102307.56;5014936;28;50977;-38
2021/10/07 05:36:22;;;;;;;;;2.00;2.00;;;;;21.09;46.55;102305.84;4985260;28;53010;-38
2021/10/07 05:38:47;;;;;;;;;1.25;1.25;;;;;21.10;46.38;102310.31;5009230;28;51109;-38
2021/10/07 05:41:12;;;;;;;;;2.00;1.00;;;;;21.12;46.38;102307.38;5011599;28;51188;-38
2021/10/07 05:43:38;;;;;;;;;1.50;0.75;;;;;21.11;46.37;102301.00;5002776;28;51716;-38
2021/10/07 05:46:03;;;;;;;;;3.25;1.75;;;;;21.12;46.67;102299.97;5002623;28;51859;-38
2021/10/07 05:48:29;;;;;;;;;2.50;1.00;;;;;21.13;46.43;102309.94;5002107;28;51066;-38
2021/10/07 05:50:54;;;;;;;;;2.00;1.25;;;;;21.13;46.83;102318.19;5007124;28;50862;-37
2021/10/07 05:53:20;;;;;;;;;3.00;1.25;;;;;21.14;46.90;102313.53;5005796;28;50917;-38
2021/10/07 05:55:45;;;;;;;;;3.00;1.75;;;;;21.13;46.45;102309.94;5001713;28;51847;-39
2021/10/07 05:58:11;;;;;;;;;4.00;2.00;;;;;21.14;46.28;102310.78;5002368;28;51146;-39
2021/10/07 06:00:36;;;;;;;;;4.75;3.00;;;;;21.14;46.62;102314.38;5006587;28;50925;-42
2021/10/07 06:03:02;;;;;;;;;4.00;3.00;;;;;21.14;46.94;102317.16;5014817;28;51092;-43
2021/10/07 06:05:27;;;;;;;;;2.00;2.00;;;;;21.15;46.78;102313.34;5001474;28;51295;-42
2021/10/07 06:07:53;;;;;;;;;4.25;3.50;;;;;21.15;46.94;102318.00;5009883;28;51256;-44
2021/10/07 06:10:18;;;;;;;;;4.00;4.00;;;;;21.15;46.57;102327.13;5002957;28;51099;-42
2021/10/07 06:12:44;;;;;;;;;4.50;3.75;;;;;21.15;47.14;102329.88;4999513;28;50978;-42
2021/10/07 06:15:11;;;;;;;;;5.00;4.00;;;;;21.15;46.83;102331.78;5008305;28;51830;-42
2021/10/07 06:17:37;;;;;;;;;4.00;3.00;;;;;21.16;46.81;102339.03;5007304;28;51064;-42
2021/10/07 06:20:17;;;;;;;;;6.00;4.00;;;;;21.15;47.08;102335.38;5017255;28;51151;-42
2021/10/07 06:22:42;;;;;;;;;5.00;4.50;;;;;21.16;46.91;102339.03;5003015;28;51274;-42
2021/10/07 06:25:08;;;;;;;;;5.00;3.00;;;;;21.16;46.62;102345.38;4998963;28;52085;-44
2021/10/07 06:27:33;;;;;;;;;3.00;3.00;;;;;21.17;46.89;102338.81;5006368;28;51184;-42
2021/10/07 06:29:59;;;;;;;;;5.75;4.50;;;;;21.15;47.06;102335.38;5013368;28;51202;-41
2021/10/07 06:32:24;;;;;;;;;2.50;2.50;;;;;21.17;47.02;102333.31;4998476;28;51037;-42
2021/10/07 06:34:50;;;;;;;;;4.50;4.00;;;;;21.17;47.00;102337.97;4997888;28;51766;-41
2021/10/07 06:37:15;;;;;;;;;3.75;3.00;;;;;21.16;47.10;102339.03;5011483;28;51105;-41
2021/10/07 06:39:40;;;;;;;;;6.50;5.50;;;;;21.15;46.96;102337.28;4988061;28;50999;-42
2021/10/07 06:42:06;;;;;;;;;2.75;2.75;;;;;21.15;46.89;102338.13;5016965;28;51166;-41
2021/10/07 06:44:31;;;;;;;;;5.25;3.50;;;;;21.16;46.72;102325.25;5016688;28;51506;-40
2021/10/07 06:46:57;;;;;;;;;4.75;4.75;;;;;21.16;46.65;102325.25;5015943;28;50937;-42
2021/10/07 06:49:22;;;;;;;;;4.00;4.00;;;;;21.15;46.80;102332.63;5014384;28;51027;-41
2021/10/07 06:51:47;;;;;;;;;4.75;3.25;;;;;21.15;46.46;102326.25;4997551;28;50855;-40
2021/10/07 06:54:13;;;;;;;;;5.50;3.00;;;;;21.15;46.47;102334.53;4997329;28;51899;-40
2021/10/07 06:56:38;;;;;;;;;4.75;4.75;;;;;21.14;46.20;102339.19;4997420;28;50966;-40
2021/10/07 06:59:05;;;;;;;;;7.00;4.00;;;;;21.13;46.41;102343.00;4997411;28;50931;-41
2021/10/07 07:01:30;;;;;;;;;4.75;4.75;;;;;21.13;46.67;102351.25;5014742;28;51287;-40
2021/10/07 07:03:57;;;;;;;;;3.00;3.00;;;;;21.12;46.36;102346.78;4997360;28;51809;-40
2021/10/07 07:06:24;;;;;;;;;6.25;5.25;;;;;21.11;46.28;102350.59;4997312;28;51206;-42
2021/10/07 07:08:50;;;;;;;;;5.00;4.00;;;;;21.11;46.39;102352.50;4997400;28;51314;-40
2021/10/07 07:11:16;;;;;;;;;4.50;3.50;;;;;21.10;46.31;102354.41;4997344;28;50824;-41
2021/10/07 07:13:43;;;;;;;;;7.50;5.00;;;;;21.09;46.30;102363.72;5014742;28;50884;-42
2021/10/07 07:16:10;;;;;;;;;4.00;4.00;;;;;21.10;46.48;102362.66;5016315;28;50916;-40
2021/10/07 07:18:35;;;;;;;;;4.50;4.50;;;;;21.09;46.67;102362.88;5016815;28;50910;-40
2021/10/07 07:21:01;;;;;;;;;3.00;3.00;;;;;21.09;45.90;102358.22;5009306;28;50875;-45
2021/10/07 07:23:26;;;;;;;;;7.50;5.25;;;;;21.09;46.08;102360.09;4996886;28;51904;-41
2021/10/07 07:25:52;;;;;;;;;5.00;4.25;;;;;21.07;46.26;102365.81;4996685;28;51062;-40
2021/10/07 07:28:17;;;;;;;;;5.25;5.25;;;;;21.08;46.16;102370.28;4997234;28;51154;-41
2021/10/07 07:30:42;;;;;;;;;8.50;5.00;;;;;21.06;46.43;102372.38;5000735;28;51312;-45
2021/10/07 07:33:08;;;;;;;;;5.50;4.00;;;;;21.07;46.01;102368.56;5016575;28;52073;-40
2021/10/07 07:35:34;;;;;;;;;5.00;3.00;;;;;21.07;45.85;102367.72;4998821;28;51158;-41
2021/10/07 07:38:01;;;;;;;;;3.50;3.00;;;;;21.06;46.06;102360.50;4996698;28;51160;-41
2021/10/07 07:40:27;;;;;;;;;6.00;5.00;;;;;21.05;46.04;102370.66;4979393;28;51016;-41
2021/10/07 07:42:53;;;;;;;;;5.75;5.75;;;;;21.06;45.80;102368.75;4995862;28;51689;-41
2021/10/07 07:45:18;;;;;;;;;4.50;3.00;;;;;21.04;46.28;102366.16;4996349;28;50934;-41
2021/10/07 07:47:44;;;;;;;;;6.50;3.75;;;;;21.04;46.16;102369.78;4996542;28;51281;-42
2021/10/07 07:50:11;;;;;;;;;6.50;6.00;;;;;21.06;46.16;102377.03;5016221;28;51358;-41
2021/10/07 07:52:37;;;;;;;;;4.00;3.75;;;;;21.04;46.24;102372.53;5016013;28;52625;-41
2021/10/07 07:55:03;;;;;;;;;4.00;4.00;;;;;21.04;46.24;102374.44;5006145;28;51237;-41
2021/10/07 07:57:29;;;;;;;;;3.00;3.00;;;;;21.04;46.01;102380.81;4996366;28;51171;-41
2021/10/07 07:59:54;;;;;;;;;5.00;3.25;;;;;21.04;45.75;102374.44;4996605;28;51271;-41
2021/10/07 08:02:19;;;;;;;;;2.75;2.75;;;;;21.06;46.07;102382.53;4986878;28;51924;-42
2021/10/07 08:04:46;;;;;;;;;3.50;3.00;;;;;21.04;46.33;102383.56;5015891;28;51047;-41
2021/10/07 08:07:13;;;;;;;;;4.50;4.00;;;;;21.04;46.26;102383.56;5000127;28;51228;-41
2021/10/07 08:09:43;;;;;;;;;6.00;4.75;;;;;21.04;46.12;102386.31;4993543;28;51375;-41
2021/10/07 08:12:12;;;;;;;;;3.50;3.00;;;;;21.04;46.11;102390.97;5015609;28;51112;-41
2021/10/07 08:14:39;;;;;;;;;3.50;3.50;;;;;21.05;46.02;102387.19;5017774;28;50985;-41
2021/10/07 08:17:04;;;;;;;;;5.75;4.00;;;;;21.05;46.01;102389.94;5018842;28;50995;-40
2021/10/07 08:19:29;;;;;;;;;7.00;4.75;;;;;21.06;46.32;102394.41;5016257;28;51256;-41
2021/10/07 08:21:55;;;;;;;;;5.00;3.75;;;;;21.07;46.01;102387.84;4998678;28;52692;-38
2021/10/07 08:24:22;;;;;;;;;5.00;5.00;;;;;21.07;46.31;102398.88;4999325;28;50964;-37
2021/10/07 08:26:48;;;;;;;;;6.50;4.00;;;;;21.08;46.12;102397.84;5007768;28;51153;-41
2021/10/07 08:29:13;;;;;;;;;4.00;3.50;;;;;21.08;45.82;102396.97;5019966;28;51304;-41
2021/10/07 08:31:39;;;;;;;;;6.00;4.00;;;;;21.10;45.90;102392.13;5018620;28;51629;-38
2021/10/07 08:34:05;;;;;;;;;3.25;3.00;;;;;21.10;46.15;102401.25;5019588;28;50982;-42
2021/10/07 08:36:32;;;;;;;;;2.00;2.00;;;;;21.11;45.89;102394.69;5019426;28;51032;-40
2021/10/07 08:38:58;;;;;;;;;4.00;4.00;;;;;21.14;45.66;102398.97;5019482;28;51307;-41
2021/10/07 08:41:23;;;;;;;;;4.00;4.00;;;;;21.15;45.94;102401.50;5018861;28;51049;-41
2021/10/07 08:43:50;;;;;;;;;4.25;4.00;;;;;21.17;46.10;102399.44;5000062;28;50999;-41
2021/10/07 08:46:17;;;;;;;;;5.25;4.00;;;;;21.18;46.10;102401.16;4999754;28;51086;-38
2021/10/07 08:48:43;;;;;;;;;5.00;4.50;;;;;21.20;46.05;102407.34;4999588;28;50963;-38
2021/10/07 08:51:08;;;;;;;;;4.75;4.75;;;;;21.21;45.48;102405.44;4998893;28;51024;-38
2021/10/07 08:53:34;;;;;;;;;5.50;3.50;;;;;21.22;45.35;102394.22;5015852;28;51058;-38
2021/10/07 08:56:01;;;;;;;;;3.25;3.25;;;;;21.23;46.04;102393.16;5001379;28;51026;-38
2021/10/07 08:58:28;;;;;;;;;4.25;4.25;;;;;21.24;45.83;102394.03;5019094;28;50907;-38
2021/10/07 09:00:53;;;;;;;;;5.25;3.25;;;;;21.27;45.46;102390.94;5018831;28;51692;-38
2021/10/07 09:03:21;;;;;;;;;4.75;4.75;;;;;21.29;45.87;102388.84;5001947;28;50971;-38
2021/10/07 09:05:48;;;;;;;;;6.75;4.50;;;;;21.32;45.35;102397.56;4999171;28;51078;-38
2021/10/07 09:08:15;;;;;;;;;5.00;5.00;;;;;21.36;45.34;102399.94;4981823;28;51185;-38
2021/10/07 09:10:43;;;;;;;;;3.75;3.50;;;;;21.37;45.30;102399.78;4998808;28;53983;-38
2021/10/07 09:13:16;;;;;;;;;5.25;3.75;;;;;21.41;45.69;102392.81;5007409;28;50955;-38
2021/10/07 09:15:56;;;;;;;;;2.75;2.75;;;;;21.44;45.39;102400.69;4998806;28;51028;-38
2021/10/07 09:18:23;;;;;;;;;5.25;3.25;;;;;21.48;45.73;102401.19;4998954;28;50906;-38
2021/10/07 09:20:52;;;;;;;;;3.00;2.00;;;;;21.51;45.25;102400.78;4998789;28;51387;-38
2021/10/07 09:23:44;;;;;;;;;3.00;2.25;;;;;21.54;45.42;102401.25;5007534;28;50893;-43
2021/10/07 09:26:12;;;;;;;;;5.00;5.00;;;;;21.58;45.02;102401.75;4992669;28;51157;-41
2021/10/07 09:28:59;;;;;;;;;3.25;3.25;;;;;21.61;44.85;102387.56;4998936;28;51040;-38
2021/10/07 09:31:26;;;;;;;;;3.75;3.00;;;;;21.65;45.49;102393.53;4998177;28;51841;-38
2021/10/07 09:33:58;;;;;;;;;3.25;3.00;;;;;21.67;45.04;102385.91;4998371;28;51270;-41
2021/10/07 09:36:23;;;;;;;;;5.50;3.50;;;;;21.70;45.32;102380.03;4998526;28;51271;-39
2021/10/07 09:38:52;;;;;;;;;5.00;3.00;;;;;21.73;45.22;102385.16;4998751;28;51106;-39
2021/10/07 09:41:22;;;;;;;;;6.00;4.00;;;;;21.76;44.80;102380.09;4998543;28;51009;-39
2021/10/07 09:44:13;;;;;;;;;3.25;3.25;;;;;21.79;44.81;102381.63;4998202;28;51048;-38
2021/10/07 09:46:41;;;;;;;;;4.00;3.00;;;;;21.82;44.62;102379.34;5012747;28;52008;-38
2021/10/07 09:49:09;;;;;;;;;3.50;3.50;;;;;21.84;45.17;102374.47;4986791;28;51261;-38
2021/10/07 09:51:48;;;;;;;;;2.75;2.75;;;;;21.86;44.71;102375.13;4997705;28;52292;-38
2021/10/07 09:54:30;;;;;;;;;5.50;3.00;;;;;21.88;45.11;102380.44;4980776;28;51097;-39
2021/10/07 09:56:58;;;;;;;;;3.75;3.00;;;;;21.90;45.12;102383.88;4997636;28;51064;-38
2021/10/07 09:59:25;;;;;;;;;6.00;4.00;;;;;21.92;44.52;102379.03;4998470;28;50964;-38
2021/10/07 10:01:53;;;;;;;;;5.25;3.00;;;;;21.93;44.48;102377.97;4998228;28;50991;-38
2021/10/07 10:04:19;;;;;;;;;3.00;2.25;;;;;21.95;44.44;102370.34;5006570;28;51407;-39
2021/10/07 10:06:44;;;;;;;;;4.25;3.25;;;;;21.97;44.62;102378.44;5013394;28;50913;-39
2021/10/07 10:09:10;;;;;;;;;4.25;3.50;;;;;21.98;44.93;102371.84;5007094;28;51302;-43
2021/10/07 10:11:35;;;;;;;;;4.25;4.25;;;;;21.99;44.45;102376.31;4998089;28;51150;-41
2021/10/07 10:14:01;;;;;;;;;3.00;3.00;;;;;21.98;44.49;102369.09;4998072;28;51009;-42
2021/10/07 10:16:29;;;;;;;;;3.00;2.75;;;;;21.97;44.99;102373.75;4998390;28;51137;-42
2021/10/07 10:19:00;;;;;;;;;2.00;2.00;;;;;21.98;44.86;102367.19;5005012;28;51308;-41
2021/10/07 10:21:28;;;;;;;;;3.00;3.00;;;;;21.98;44.81;102378.22;4997926;28;51811;-38
2021/10/07 10:23:55;;;;;;;;;2.00;2.00;;;;;21.99;44.10;102370.81;5000482;28;50934;-38
2021/10/07 10:26:21;;;;;;;;;4.75;3.00;;;;;21.99;44.34;102377.22;5018024;28;51412;-40
2021/10/07 10:28:52;;;;;;;;;3.50;2.75;;;;;21.98;44.27;102374.63;5018397;28;51216;-43
2021/10/07 10:31:50;;;;;;;;;4.25;4.25;;;;;21.99;44.67;102381.84;5017096;28;52089;-42
2021/10/07 10:34:17;;;;;;;;;1.75;1.75;;;;;22.01;44.12;102379.75;5015968;28;51343;-41
2021/10/07 10:36:45;;;;;;;;;5.50;3.50;;;;;22.01;44.11;102382.53;5016922;28;50989;-42
2021/10/07 10:39:18;;;;;;;;;3.75;2.50;;;;;22.02;44.31;102375.94;5016972;28;50994;-46
2021/10/07 10:42:07;;;;;;;;;4.75;2.50;;;;;22.02;44.69;102371.28;5016998;28;51141;-48
2021/10/07 10:44:41;;;;;;;;;4.00;3.50;;;;;22.03;44.55;102374.91;5009958;28;50855;-41
2021/10/07 10:47:07;;;;;;;;;2.00;2.00;;;;;22.02;44.57;102371.28;4997089;28;51025;-42
2021/10/07 10:49:51;;;;;;;;;2.00;2.00;;;;;22.04;44.08;102373.84;4997253;28;50895;-42
2021/10/07 10:52:25;;;;;;;;;2.00;2.00;;;;;22.03;44.56;102370.22;4996836;28;51797;-42
2021/10/07 10:54:56;;;;;;;;;2.25;2.25;;;;;22.04;43.92;102362.81;4996922;28;50995;-43
2021/10/07 10:57:36;;;;;;;;;4.00;3.25;;;;;22.04;44.00;102373.84;4996762;28;51007;-41
2021/10/07 11:00:20;;;;;;;;;3.75;3.00;;;;;22.03;44.42;102372.13;4996975;28;50989;-42
2021/10/07 11:02:47;;;;;;;;;3.00;3.00;;;;;22.04;43.92;102373.84;4978974;28;53956;-41
2021/10/07 11:05:17;;;;;;;;;5.00;3.00;;;;;22.04;44.52;102368.31;4997367;28;50948;-42
2021/10/07 11:07:43;;;;;;;;;4.50;2.25;;;;;22.03;44.52;102366.63;4997107;28;50835;-42
2021/10/07 11:10:13;;;;;;;;;4.00;3.00;;;;;22.03;43.96;102369.38;4997223;28;51213;-43
2021/10/07 11:12:50;;;;;;;;;2.75;2.75;;;;;22.03;44.01;102372.13;4978941;28;52719;-42
2021/10/07 11:15:17;;;;;;;;;2.50;2.00;;;;;22.03;43.70;102375.75;4996721;28;50990;-42
2021/10/07 11:17:46;;;;;;;;;3.25;3.25;;;;;22.03;44.44;102369.38;5001120;28;51084;-39
2021/10/07 11:20:15;;;;;;;;;4.25;2.75;;;;;22.03;43.96;102372.13;5016784;28;51093;-39
2021/10/07 11:22:56;;;;;;;;;6.00;4.50;;;;;22.03;44.21;102373.00;5016731;28;50949;-39
2021/10/07 11:25:22;;;;;;;;;3.75;3.75;;;;;22.02;44.00;102376.81;5016795;28;51292;-38
2021/10/07 11:27:48;;;;;;;;;3.50;3.00;;;;;22.02;44.38;102373.19;4999958;28;51204;-38